OEJN/JED METAR and TAF weather

Enter ICAO airport designator
Station Type Date Time Source
OEJN METAR 2019/08/23 15:00 UTC NOAA

OEJN 231500Z 33009KT CAVOK 35/24 Q1005 NOSIG


Station Type Date Time Source
OEJN Decoded METAR 2019/08/23 15:00 UTC NOAA

Station name not available
Aug 23, 2019 - 11:00 AM EDT / 2019.08.23 1500 UTC
Wind: from the NNW (330 degrees) at 10 MPH (9 KT):0
Visibility: greater than 7 mile(s):0
Temperature: 95 F (35 C)
Heat index: 107.4 F (41.9 C):1
Dew Point: 75 F (24 C)
Relative Humidity: 53%
Pressure (altimeter): 29.68 in. Hg (1005 hPa)
ob: OEJN 231500Z 33009KT CAVOK 35/24 Q1005 NOSIG
cycle: 15

Station Type Date Time Source
OEJN TAF 2019/08/23 12:06 UTC NOAA

TAF OEJN 231100Z 2312/2418 33014KT 9999 FEW040 SCT100
BECMG 2318/2320 06008KT

Example: see airport list